createdAt,value
2018-12-16T00:02:11.754Z,1.90
2018-12-16T00:04:49.985Z,1.90
2018-12-16T00:07:23.196Z,2.00
2018-12-16T00:09:56.347Z,2.00
2018-12-16T00:12:29.359Z,2.00
2018-12-16T00:15:02.395Z,2.00
2018-12-16T00:17:35.403Z,1.90
2018-12-16T00:20:08.283Z,1.80
2018-12-16T00:22:45.589Z,1.70
2018-12-16T00:25:22.208Z,1.70
2018-12-16T00:27:55.101Z,1.60
2018-12-16T00:30:28.314Z,1.60
2018-12-16T00:33:01.392Z,1.70
2018-12-16T00:35:39.581Z,1.80
2018-12-16T00:38:12.023Z,1.90
2018-12-16T00:40:45.053Z,1.90
2018-12-16T00:43:22.227Z,1.90
2018-12-16T00:45:55.009Z,1.80
2018-12-16T00:48:28.295Z,1.70
2018-12-16T00:51:01.278Z,1.70
2018-12-16T00:53:34.370Z,1.70
2018-12-16T00:56:07.674Z,1.70
2018-12-16T00:58:41.056Z,1.60
2018-12-16T01:01:14.085Z,1.50
2018-12-16T01:03:51.212Z,1.50
2018-12-16T01:06:24.538Z,1.50
2018-12-16T01:08:57.646Z,1.50
2018-12-16T01:11:34.814Z,1.60
2018-12-16T01:14:07.871Z,1.60
2018-12-16T01:16:40.773Z,1.70
2018-12-16T01:19:13.266Z,1.70
2018-12-16T01:21:50.591Z,1.70
2018-12-16T01:24:23.787Z,1.70
2018-12-16T01:26:56.965Z,1.70
2018-12-16T01:29:34.119Z,1.70
2018-12-16T01:32:06.486Z,1.60
2018-12-16T01:34:40.031Z,1.60
2018-12-16T01:37:13.096Z,1.60
2018-12-16T01:39:50.181Z,1.60
2018-12-16T01:42:27.504Z,1.60
2018-12-16T01:45:04.857Z,1.70
2018-12-16T01:47:37.695Z,1.70
2018-12-16T01:50:10.692Z,1.80
2018-12-16T01:52:49.963Z,1.80
2018-12-16T01:55:18.491Z,1.80
2018-12-16T01:57:51.627Z,1.80
2018-12-16T02:00:29.430Z,1.80
2018-12-16T02:03:05.879Z,1.80
2018-12-16T02:05:39.023Z,1.80
2018-12-16T02:08:12.432Z,1.70
2018-12-16T02:10:49.563Z,1.70
2018-12-16T02:13:22.217Z,1.80
2018-12-16T02:15:55.299Z,1.80
2018-12-16T02:18:28.523Z,1.60
2018-12-16T02:21:05.508Z,1.60
2018-12-16T02:23:42.830Z,1.60
2018-12-16T02:26:16.144Z,1.60
2018-12-16T02:28:49.439Z,1.60
2018-12-16T02:31:22.750Z,1.70
2018-12-16T02:33:56.361Z,1.60
2018-12-16T02:36:29.371Z,1.60
2018-12-16T02:39:06.991Z,1.60
2018-12-16T02:41:39.674Z,1.70
2018-12-16T02:44:12.992Z,1.70
2018-12-16T02:46:46.110Z,1.70
2018-12-16T02:49:19.050Z,1.80
2018-12-16T02:51:56.163Z,1.70
2018-12-16T02:54:29.343Z,1.70
2018-12-16T02:57:02.496Z,1.70
2018-12-16T02:59:35.571Z,1.80
2018-12-16T03:02:12.759Z,1.70
2018-12-16T03:04:49.125Z,1.60
2018-12-16T03:07:26.425Z,1.50
2018-12-16T03:10:03.631Z,1.50
2018-12-16T03:12:40.730Z,1.60
2018-12-16T03:15:14.056Z,1.50
2018-12-16T03:17:46.905Z,1.60
2018-12-16T03:20:20.081Z,1.60
2018-12-16T03:22:52.944Z,1.70
2018-12-16T03:25:29.334Z,1.70
2018-12-16T03:28:06.903Z,1.80
2018-12-16T03:30:44.036Z,1.80
2018-12-16T03:33:17.147Z,1.90
2018-12-16T03:35:49.983Z,1.90
2018-12-16T03:38:26.534Z,2.00
2018-12-16T03:40:59.745Z,2.00
2018-12-16T03:43:32.902Z,2.00
2018-12-16T03:46:10.299Z,2.00
2018-12-16T03:48:47.257Z,2.00
2018-12-16T03:51:20.214Z,2.00
2018-12-16T03:53:53.056Z,2.00
2018-12-16T03:56:30.350Z,2.00
2018-12-16T03:59:18.042Z,2.00
2018-12-16T04:01:57.186Z,2.10
2018-12-16T04:04:30.505Z,2.00
2018-12-16T04:07:03.470Z,2.00
2018-12-16T04:09:36.800Z,2.10
2018-12-16T04:12:09.819Z,2.10
2018-12-16T04:14:42.857Z,2.10
2018-12-16T04:17:20.259Z,2.10
2018-12-16T04:19:57.453Z,2.10
2018-12-16T04:22:30.472Z,2.10
2018-12-16T04:25:03.613Z,2.10
2018-12-16T04:27:41.552Z,2.10
2018-12-16T04:30:14.643Z,2.10
2018-12-16T04:32:47.790Z,2.10
2018-12-16T04:35:25.022Z,2.20
2018-12-16T04:37:58.164Z,2.20
2018-12-16T04:40:34.622Z,2.20
2018-12-16T04:43:11.702Z,2.20
2018-12-16T04:45:48.334Z,2.20
2018-12-16T04:48:21.642Z,2.30
2018-12-16T04:50:54.870Z,2.20
2018-12-16T04:53:36.071Z,2.20
2018-12-16T04:56:10.681Z,2.20
2018-12-16T04:58:47.851Z,2.20
2018-12-16T05:01:20.843Z,2.20
2018-12-16T05:03:58.130Z,2.10
2018-12-16T05:06:31.012Z,2.00
2018-12-16T05:09:08.753Z,2.00
2018-12-16T05:11:45.174Z,2.00
2018-12-16T05:14:18.367Z,1.90
2018-12-16T05:16:54.754Z,1.90
2018-12-16T05:19:31.268Z,1.90
2018-12-16T05:22:04.607Z,2.00
2018-12-16T05:24:37.744Z,2.00
2018-12-16T05:27:10.877Z,2.10
2018-12-16T05:29:48.098Z,2.10
2018-12-16T05:32:20.935Z,2.20
2018-12-16T05:34:53.341Z,1.90
2018-12-16T05:37:30.377Z,1.60
2018-12-16T05:40:03.689Z,1.50
2018-12-16T05:42:36.402Z,1.50
2018-12-16T05:45:13.698Z,1.50
2018-12-16T05:47:50.195Z,1.50
2018-12-16T05:50:22.874Z,1.60
2018-12-16T05:52:55.879Z,1.70
2018-12-16T05:55:28.794Z,1.90
2018-12-16T05:58:05.073Z,2.10
2018-12-16T06:00:41.374Z,2.30
2018-12-16T06:03:14.608Z,2.50
2018-12-16T06:05:51.607Z,2.30
2018-12-16T06:08:28.767Z,2.00
2018-12-16T06:11:01.696Z,1.90
2018-12-16T06:13:35.063Z,1.90
2018-12-16T06:16:08.147Z,1.90
2018-12-16T06:18:40.736Z,2.00
2018-12-16T06:21:14.191Z,2.10
2018-12-16T06:23:47.219Z,2.10
2018-12-16T06:26:20.282Z,2.10
2018-12-16T06:28:53.348Z,2.20
2018-12-16T06:31:26.449Z,2.20
2018-12-16T06:33:59.783Z,2.30
2018-12-16T06:36:33.220Z,2.30
2018-12-16T06:39:10.174Z,2.40
2018-12-16T06:41:55.329Z,2.40
2018-12-16T06:44:28.489Z,2.50
2018-12-16T06:47:01.518Z,2.50
2018-12-16T06:49:34.953Z,2.50
2018-12-16T06:52:08.279Z,2.50
2018-12-16T06:54:41.711Z,2.50
2018-12-16T06:57:14.788Z,2.50
2018-12-16T06:59:51.693Z,2.60
2018-12-16T07:02:24.921Z,2.60
2018-12-16T07:04:58.274Z,2.60
2018-12-16T07:07:31.493Z,2.60
2018-12-16T07:10:04.910Z,2.70
2018-12-16T07:12:37.756Z,2.70
2018-12-16T07:15:15.030Z,2.70
2018-12-16T07:17:52.126Z,2.70
2018-12-16T07:20:29.129Z,2.80
2018-12-16T07:23:02.352Z,2.80
2018-12-16T07:25:35.866Z,2.80
2018-12-16T07:28:12.874Z,2.80
2018-12-16T07:30:45.633Z,2.90
2018-12-16T07:33:19.150Z,2.90
2018-12-16T07:35:52.391Z,3.00
2018-12-16T07:38:27.476Z,3.00
2018-12-16T07:41:04.689Z,3.10
2018-12-16T07:43:38.323Z,3.10
2018-12-16T07:46:11.491Z,3.10
2018-12-16T07:48:44.768Z,3.20
2018-12-16T07:51:21.961Z,3.20
2018-12-16T07:53:54.903Z,3.20
2018-12-16T07:56:27.750Z,3.20
2018-12-16T07:59:00.894Z,3.30
2018-12-16T08:01:34.144Z,3.40
2018-12-16T08:04:07.355Z,3.40
2018-12-16T08:06:44.264Z,3.40
2018-12-16T08:09:18.551Z,3.30
2018-12-16T08:11:51.828Z,3.40
2018-12-16T08:14:24.747Z,3.40
2018-12-16T08:17:01.699Z,3.50
2018-12-16T08:19:35.075Z,3.60
2018-12-16T08:22:08.090Z,3.60
2018-12-16T08:24:45.425Z,3.20
2018-12-16T08:27:18.861Z,3.10
2018-12-16T08:29:51.956Z,3.10
2018-12-16T08:32:25.221Z,3.00
2018-12-16T08:35:02.008Z,3.00
2018-12-16T08:37:35.386Z,3.10
2018-12-16T08:40:08.790Z,3.10
2018-12-16T08:42:41.822Z,3.10
2018-12-16T08:45:15.228Z,3.20
2018-12-16T08:47:52.264Z,3.30
2018-12-16T08:50:25.184Z,3.30
2018-12-16T08:53:02.451Z,3.30
2018-12-16T08:55:35.436Z,3.30
2018-12-16T08:58:10.098Z,3.30
2018-12-16T09:00:47.016Z,3.40
2018-12-16T09:03:19.938Z,3.40
2018-12-16T09:05:53.400Z,3.50
2018-12-16T09:08:26.455Z,3.50
2018-12-16T09:10:59.565Z,3.60
2018-12-16T09:13:32.828Z,3.60
2018-12-16T09:16:09.382Z,3.70
2018-12-16T09:18:45.751Z,3.70
2018-12-16T09:21:22.118Z,3.70
2018-12-16T09:23:58.481Z,3.70
2018-12-16T09:26:35.706Z,3.80
2018-12-16T09:29:13.366Z,3.90
2018-12-16T09:31:53.387Z,3.80
2018-12-16T09:34:26.574Z,3.80
2018-12-16T09:36:59.776Z,3.80
2018-12-16T09:39:33.015Z,3.80
2018-12-16T09:42:06.331Z,3.90
2018-12-16T09:44:43.814Z,3.90
2018-12-16T09:47:16.859Z,4.00
2018-12-16T09:49:50.294Z,4.00
2018-12-16T09:52:27.649Z,3.90
2018-12-16T09:55:00.270Z,3.90
2018-12-16T09:57:37.747Z,3.90
2018-12-16T10:00:14.866Z,4.00
2018-12-16T10:02:47.989Z,4.10
2018-12-16T10:05:24.998Z,4.20
2018-12-16T10:07:58.024Z,4.40
2018-12-16T10:10:31.397Z,4.40
2018-12-16T10:13:04.674Z,4.20
2018-12-16T10:15:41.385Z,4.00
2018-12-16T10:18:14.756Z,4.00
2018-12-16T10:20:47.811Z,4.10
2018-12-16T10:23:25.003Z,4.20
2018-12-16T10:26:02.218Z,4.20
2018-12-16T10:28:35.490Z,4.30
2018-12-16T10:31:12.529Z,4.30
2018-12-16T10:33:45.640Z,4.40
2018-12-16T10:36:18.952Z,4.60
2018-12-16T10:38:56.158Z,4.60
2018-12-16T10:41:29.450Z,4.70
2018-12-16T10:44:02.490Z,4.80
2018-12-16T10:46:35.610Z,4.90
2018-12-16T10:49:13.370Z,5.00
2018-12-16T10:51:46.287Z,5.00
2018-12-16T10:54:23.268Z,5.00
2018-12-16T10:56:56.463Z,5.10
2018-12-16T10:59:29.587Z,5.10
2018-12-16T11:02:06.616Z,4.90
2018-12-16T11:04:39.885Z,4.70
2018-12-16T11:07:18.027Z,4.60
2018-12-16T11:09:51.299Z,4.60
2018-12-16T11:12:24.867Z,4.70
2018-12-16T11:15:02.062Z,4.70
2018-12-16T11:17:35.574Z,4.60
2018-12-16T11:20:09.028Z,4.60
2018-12-16T11:22:41.879Z,4.70
2018-12-16T11:25:16.779Z,4.70
2018-12-16T11:27:49.661Z,4.70
2018-12-16T11:30:23.023Z,4.80
2018-12-16T11:32:55.704Z,4.90
2018-12-16T11:35:28.910Z,5.00
2018-12-16T11:38:01.997Z,5.10
2018-12-16T11:40:39.374Z,5.10
2018-12-16T11:43:12.269Z,5.20
2018-12-16T11:45:45.742Z,5.20
2018-12-16T11:48:18.729Z,5.20
2018-12-16T11:50:56.017Z,5.30
2018-12-16T11:53:33.134Z,5.20
2018-12-16T11:56:05.872Z,5.20
2018-12-16T11:58:39.350Z,5.20
2018-12-16T12:01:12.730Z,5.20
2018-12-16T12:03:45.599Z,5.20
2018-12-16T12:06:19.294Z,5.30
2018-12-16T12:08:57.068Z,5.30
2018-12-16T12:11:30.277Z,5.40
2018-12-16T12:14:03.426Z,5.40
2018-12-16T12:16:36.584Z,5.50
2018-12-16T12:19:14.406Z,5.50
2018-12-16T12:21:47.986Z,5.70
2018-12-16T12:24:25.533Z,5.80
2018-12-16T12:26:59.390Z,5.80
2018-12-16T12:29:35.706Z,5.80
2018-12-16T12:32:09.132Z,5.80
2018-12-16T12:34:42.139Z,5.80
2018-12-16T12:37:14.787Z,5.90
2018-12-16T12:39:47.962Z,6.00
2018-12-16T12:42:25.126Z,6.00
2018-12-16T12:44:58.293Z,6.00
2018-12-16T12:47:34.653Z,6.00
2018-12-16T12:50:11.630Z,5.90
2018-12-16T12:52:45.078Z,5.90
2018-12-16T12:55:26.829Z,5.90
2018-12-16T12:58:00.762Z,5.90
2018-12-16T13:00:38.486Z,5.90
2018-12-16T13:03:12.773Z,6.00
2018-12-16T13:05:46.808Z,6.10
2018-12-16T13:08:25.499Z,6.10
2018-12-16T13:11:03.010Z,6.20
2018-12-16T13:13:41.582Z,6.30
2018-12-16T13:16:15.950Z,6.30
2018-12-16T13:18:50.966Z,6.30
2018-12-16T13:21:24.587Z,6.30
2018-12-16T13:23:58.587Z,6.20
2018-12-16T13:26:32.374Z,6.10
2018-12-16T13:29:07.640Z,6.10
2018-12-16T13:31:41.705Z,5.90
2018-12-16T13:34:15.680Z,5.90
2018-12-16T13:36:48.907Z,5.80
2018-12-16T13:39:22.717Z,5.70
2018-12-16T13:41:59.613Z,5.70
2018-12-16T13:44:32.501Z,5.80
2018-12-16T13:47:06.007Z,5.90
2018-12-16T13:49:39.090Z,5.90
2018-12-16T13:52:11.995Z,5.90
2018-12-16T13:54:45.723Z,5.90
2018-12-16T13:57:18.798Z,5.80
2018-12-16T13:59:52.168Z,5.80
2018-12-16T14:02:25.916Z,5.70
2018-12-16T14:04:59.450Z,5.70
2018-12-16T14:07:33.874Z,5.70
2018-12-16T14:10:07.417Z,5.70
2018-12-16T14:12:40.180Z,5.60
2018-12-16T14:15:13.295Z,5.60
2018-12-16T14:17:46.340Z,5.60
2018-12-16T14:20:19.209Z,5.60
2018-12-16T14:22:52.308Z,5.50
2018-12-16T14:25:25.741Z,5.50
2018-12-16T14:27:59.918Z,5.50
2018-12-16T14:30:32.941Z,5.50
2018-12-16T14:33:05.891Z,5.50
2018-12-16T14:35:38.838Z,5.50
2018-12-16T14:38:16.416Z,5.50
2018-12-16T14:40:54.077Z,5.50
2018-12-16T14:43:27.283Z,5.40
2018-12-16T14:46:04.359Z,5.40
2018-12-16T14:48:37.292Z,5.40
2018-12-16T14:51:10.608Z,5.40
2018-12-16T14:53:44.041Z,5.30
2018-12-16T14:56:17.239Z,5.30
2018-12-16T14:58:50.984Z,5.20
2018-12-16T15:01:28.711Z,5.30
2018-12-16T15:04:01.852Z,5.30
2018-12-16T15:06:34.755Z,5.20
2018-12-16T15:09:09.212Z,5.20
2018-12-16T15:11:46.419Z,5.20
2018-12-16T15:14:23.141Z,5.20
2018-12-16T15:16:56.119Z,5.30
2018-12-16T15:19:29.378Z,5.30
2018-12-16T15:22:02.482Z,5.20
2018-12-16T15:24:35.187Z,5.30
2018-12-16T15:27:08.266Z,5.20
2018-12-16T15:29:41.297Z,5.20
2018-12-16T15:32:14.506Z,5.20
2018-12-16T15:34:47.645Z,5.10
2018-12-16T15:37:20.880Z,5.10
2018-12-16T15:39:56.595Z,5.20
2018-12-16T15:42:29.670Z,5.20
2018-12-16T15:45:02.873Z,5.10
2018-12-16T15:47:36.259Z,5.10
2018-12-16T15:50:10.103Z,5.10
2018-12-16T15:52:47.170Z,5.00
2018-12-16T15:55:19.739Z,5.00
2018-12-16T15:57:56.986Z,5.00
2018-12-16T16:00:30.158Z,5.00
2018-12-16T16:03:03.299Z,5.00
2018-12-16T16:05:36.472Z,5.00
2018-12-16T16:08:16.391Z,5.10
2018-12-16T16:10:47.387Z,5.10
2018-12-16T16:13:20.430Z,5.10
2018-12-16T16:15:52.938Z,5.10
2018-12-16T16:18:25.364Z,5.10
2018-12-16T16:20:58.263Z,5.10
2018-12-16T16:23:34.547Z,5.00
2018-12-16T16:26:16.159Z,5.00
2018-12-16T16:28:46.222Z,4.90
2018-12-16T16:31:23.420Z,4.90
2018-12-16T16:33:55.729Z,5.00
2018-12-16T16:36:28.064Z,5.00
2018-12-16T16:39:01.617Z,5.00
2018-12-16T16:41:35.445Z,5.10
2018-12-16T16:44:08.703Z,5.10
2018-12-16T16:46:41.566Z,5.10
2018-12-16T16:49:17.983Z,5.10
2018-12-16T16:51:51.010Z,5.10
2018-12-16T16:54:28.204Z,5.10
2018-12-16T16:57:01.384Z,5.10
2018-12-16T16:59:37.923Z,5.10
2018-12-16T17:02:10.935Z,5.10
2018-12-16T17:04:44.023Z,5.10
2018-12-16T17:07:17.003Z,5.10
2018-12-16T17:09:49.303Z,5.00
2018-12-16T17:12:25.693Z,5.00
2018-12-16T17:14:58.776Z,5.00
2018-12-16T17:17:33.092Z,5.00
2018-12-16T17:20:05.620Z,5.00
2018-12-16T17:22:38.486Z,4.90
2018-12-16T17:25:11.716Z,4.90
2018-12-16T17:27:44.947Z,5.00
2018-12-16T17:30:18.022Z,5.00
2018-12-16T17:32:51.262Z,5.00
2018-12-16T17:35:23.550Z,5.10
2018-12-16T17:37:56.016Z,5.10
2018-12-16T17:40:29.507Z,5.20
2018-12-16T17:43:02.220Z,5.20
2018-12-16T17:45:35.280Z,5.20
2018-12-16T17:52:57.442Z,5.10
2018-12-16T17:55:34.341Z,5.10
2018-12-16T17:58:07.530Z,5.10
2018-12-16T18:00:40.660Z,5.10
2018-12-16T18:03:13.899Z,5.20
2018-12-16T18:05:46.342Z,5.20
2018-12-16T18:08:19.490Z,5.20
2018-12-16T18:10:52.638Z,5.20
2018-12-16T18:13:25.944Z,5.10
2018-12-16T18:15:59.034Z,5.10
2018-12-16T18:18:31.707Z,5.10
2018-12-16T18:21:04.463Z,5.20
2018-12-16T18:23:37.906Z,5.20
2018-12-16T18:26:10.990Z,5.20
2018-12-16T18:28:43.600Z,5.20
2018-12-16T18:31:16.572Z,5.20
2018-12-16T18:33:48.970Z,5.20
2018-12-16T18:36:21.997Z,5.20
2018-12-16T18:38:55.194Z,5.20
2018-12-16T18:41:28.425Z,5.30
2018-12-16T18:44:01.298Z,5.30
2018-12-16T18:46:34.383Z,5.30
2018-12-16T18:49:07.899Z,5.20
2018-12-16T18:51:44.870Z,5.20
2018-12-16T18:54:17.534Z,5.20
2018-12-16T18:56:51.226Z,5.20
2018-12-16T18:59:24.122Z,5.20
2018-12-16T19:01:56.957Z,5.20
2018-12-16T19:04:34.033Z,5.20
2018-12-16T19:07:07.297Z,5.30
2018-12-16T19:09:44.355Z,5.20
2018-12-16T19:12:17.410Z,5.20
2018-12-16T19:14:54.322Z,5.30
2018-12-16T19:17:27.092Z,5.20
2018-12-16T19:19:59.933Z,5.20
2018-12-16T19:22:33.180Z,5.20
2018-12-16T19:25:06.679Z,5.20
2018-12-16T19:27:39.953Z,5.20
2018-12-16T19:30:13.012Z,5.10
2018-12-16T19:32:46.286Z,5.10
2018-12-16T19:35:19.532Z,5.10
2018-12-16T19:37:52.988Z,5.10
2018-12-16T19:40:29.783Z,5.10
2018-12-16T19:43:06.426Z,5.20
2018-12-16T19:45:43.702Z,5.20
2018-12-16T19:48:20.638Z,5.20
2018-12-16T19:50:54.226Z,5.20
2018-12-16T19:53:31.258Z,5.20
2018-12-16T19:56:04.655Z,5.20
2018-12-16T19:58:37.708Z,5.20
2018-12-16T20:01:14.950Z,5.10
2018-12-16T20:03:56.642Z,5.00
2018-12-16T20:06:38.999Z,5.00
2018-12-16T20:09:11.923Z,5.00
2018-12-16T20:11:48.694Z,5.00
2018-12-16T20:14:21.963Z,5.10
2018-12-16T20:16:55.652Z,5.10
2018-12-16T20:19:32.467Z,5.10
2018-12-16T20:22:05.724Z,5.10
2018-12-16T20:24:43.182Z,5.20
2018-12-16T20:27:16.360Z,5.20
2018-12-16T20:29:53.352Z,5.20
2018-12-16T20:32:26.735Z,5.20
2018-12-16T20:35:04.190Z,5.20
2018-12-16T20:37:37.879Z,5.20
2018-12-16T20:40:10.395Z,5.20
2018-12-16T20:42:43.610Z,5.20
2018-12-16T20:45:20.075Z,5.30
2018-12-16T20:47:53.440Z,5.20
2018-12-16T20:50:26.479Z,5.20
2018-12-16T20:53:03.867Z,5.10
2018-12-16T20:55:37.204Z,5.10
2018-12-16T20:58:10.287Z,5.10
2018-12-16T21:00:43.764Z,5.00
2018-12-16T21:03:16.843Z,5.00
2018-12-16T21:05:53.952Z,5.00
2018-12-16T21:08:30.619Z,5.00
2018-12-16T21:11:12.844Z,5.00
2018-12-16T21:13:51.343Z,5.00
2018-12-16T21:16:33.601Z,5.00
2018-12-16T21:19:06.879Z,5.00
2018-12-16T21:21:40.154Z,5.00
2018-12-16T21:24:13.367Z,5.10
2018-12-16T21:26:50.513Z,5.10
2018-12-16T21:29:23.507Z,5.10
2018-12-16T21:31:57.143Z,5.10
2018-12-16T21:34:30.501Z,5.10
2018-12-16T21:37:04.026Z,5.10
2018-12-16T21:39:37.419Z,5.10
2018-12-16T21:42:10.751Z,5.00
2018-12-16T21:44:47.724Z,5.10
2018-12-16T21:47:20.775Z,5.10
2018-12-16T21:49:54.634Z,5.10
2018-12-16T21:52:27.885Z,5.10
2018-12-16T21:55:01.103Z,5.10
2018-12-16T21:57:38.406Z,5.10
2018-12-16T22:00:11.353Z,5.10
2018-12-16T22:02:44.604Z,5.10
2018-12-16T22:05:19.645Z,5.10
2018-12-16T22:07:53.400Z,5.10
2018-12-16T22:10:31.085Z,5.10
2018-12-16T22:13:04.386Z,5.10
2018-12-16T22:15:41.446Z,5.10
2018-12-16T22:18:14.569Z,5.10
2018-12-16T22:20:47.838Z,5.10
2018-12-16T22:23:30.422Z,5.10
2018-12-16T22:26:03.531Z,5.10
2018-12-16T22:28:36.724Z,5.10
2018-12-16T22:31:09.611Z,5.10
2018-12-16T22:33:43.114Z,5.10
2018-12-16T22:36:16.119Z,5.00
2018-12-16T22:38:53.459Z,5.10
2018-12-16T22:41:30.465Z,5.10
2018-12-16T22:44:03.834Z,5.10
2018-12-16T22:46:37.097Z,5.10
2018-12-16T22:49:10.256Z,5.10
2018-12-16T22:51:43.017Z,5.10
2018-12-16T22:54:16.294Z,5.10
2018-12-16T22:56:49.605Z,5.10
2018-12-16T22:59:22.936Z,5.10
2018-12-16T23:02:00.182Z,5.20
2018-12-16T23:04:33.125Z,5.20
2018-12-16T23:07:10.713Z,5.20
2018-12-16T23:09:44.381Z,5.20
2018-12-16T23:12:17.781Z,5.20
2018-12-16T23:14:51.105Z,5.20
2018-12-16T23:17:24.375Z,5.10
2018-12-16T23:20:06.519Z,5.10
2018-12-16T23:22:39.583Z,5.20
2018-12-16T23:25:17.000Z,5.20
2018-12-16T23:27:54.520Z,5.20
2018-12-16T23:30:31.591Z,5.20
2018-12-16T23:33:04.907Z,5.20
2018-12-16T23:35:42.021Z,5.30
2018-12-16T23:38:15.363Z,5.30
2018-12-16T23:40:48.727Z,5.30
2018-12-16T23:43:25.813Z,5.30
2018-12-16T23:45:59.566Z,5.30
2018-12-16T23:48:32.990Z,5.30
2018-12-16T23:51:06.575Z,5.30
2018-12-16T23:53:39.598Z,5.20
2018-12-16T23:56:13.008Z,5.20
2018-12-16T23:58:50.696Z,5.20
